createdAt,value
2019-02-23T00:00:35.258Z,5.20
2019-02-23T00:01:38.690Z,5.21
2019-02-23T00:02:42.118Z,5.19
2019-02-23T00:03:45.621Z,5.21
2019-02-23T00:04:49.097Z,5.14
2019-02-23T00:05:52.546Z,5.12
2019-02-23T00:06:55.970Z,5.14
2019-02-23T00:07:59.397Z,5.23
2019-02-23T00:09:02.907Z,5.26
2019-02-23T00:10:07.917Z,5.14
2019-02-23T00:11:11.432Z,5.13
2019-02-23T00:12:14.934Z,5.09
2019-02-23T00:13:18.435Z,5.05
2019-02-23T00:14:21.934Z,5.05
2019-02-23T00:15:25.388Z,4.92
2019-02-23T00:16:28.928Z,4.85
2019-02-23T00:17:32.414Z,4.93
2019-02-23T00:18:35.937Z,4.99
2019-02-23T00:19:39.437Z,4.96
2019-02-23T00:20:43.060Z,5.01
2019-02-23T00:21:46.578Z,4.93
2019-02-23T00:22:50.098Z,4.88
2019-02-23T00:23:53.543Z,4.90
2019-02-23T00:24:57.051Z,4.88
2019-02-23T00:26:00.506Z,4.91
2019-02-23T00:27:04.078Z,4.92
2019-02-23T00:28:07.637Z,4.88
2019-02-23T00:29:11.149Z,4.82
2019-02-23T00:30:14.727Z,4.79
2019-02-23T00:31:18.265Z,4.77
2019-02-23T00:32:21.728Z,4.80
2019-02-23T00:33:25.235Z,4.73
2019-02-23T00:34:28.687Z,4.71
2019-02-23T00:35:32.202Z,4.68
2019-02-23T00:36:35.652Z,4.54
2019-02-23T00:37:39.178Z,4.55
2019-02-23T00:38:42.607Z,4.69
2019-02-23T00:39:46.044Z,4.75
2019-02-23T00:40:49.484Z,4.72
2019-02-23T00:41:52.950Z,4.60
2019-02-23T00:42:56.481Z,4.52
2019-02-23T00:43:59.935Z,4.34
2019-02-23T00:45:03.518Z,4.30
2019-02-23T00:46:07.030Z,4.23
2019-02-23T00:47:10.569Z,4.32
2019-02-23T00:48:14.028Z,4.33
2019-02-23T00:49:17.474Z,4.32
2019-02-23T00:50:21.000Z,4.39
2019-02-23T00:51:24.441Z,4.47
2019-02-23T00:52:27.905Z,4.44
2019-02-23T00:53:31.368Z,4.45
2019-02-23T00:54:34.938Z,4.45
2019-02-23T00:55:38.362Z,4.41
2019-02-23T00:56:41.794Z,4.50
2019-02-23T00:57:45.252Z,4.47
2019-02-23T00:58:48.699Z,4.46
2019-02-23T00:59:52.129Z,4.31
2019-02-23T01:00:55.624Z,4.27
2019-02-23T01:01:59.055Z,4.43
2019-02-23T01:03:02.515Z,4.52
2019-02-23T01:04:06.111Z,4.44
2019-02-23T01:05:09.726Z,4.35
2019-02-23T01:06:13.467Z,4.40
2019-02-23T01:07:17.112Z,4.36
2019-02-23T01:08:20.528Z,4.35
2019-02-23T01:09:24.029Z,4.28
2019-02-23T01:10:27.474Z,4.20
2019-02-23T01:11:30.910Z,4.23
2019-02-23T01:12:34.418Z,4.29
2019-02-23T01:13:37.888Z,4.34
2019-02-23T01:14:41.428Z,4.24
2019-02-23T01:15:44.874Z,4.19
2019-02-23T01:16:48.323Z,4.23
2019-02-23T01:17:51.764Z,4.21
2019-02-23T01:18:55.299Z,4.16
2019-02-23T01:19:59.023Z,4.17
2019-02-23T01:21:02.637Z,4.03
2019-02-23T01:22:06.155Z,4.13
2019-02-23T01:23:09.709Z,4.17
2019-02-23T01:24:13.255Z,4.19
2019-02-23T01:25:16.672Z,4.17
2019-02-23T01:26:20.102Z,4.17
2019-02-23T01:27:23.625Z,4.16
2019-02-23T01:28:27.134Z,4.16
2019-02-23T01:29:30.591Z,4.10
2019-02-23T01:30:34.051Z,4.06
2019-02-23T01:31:37.562Z,4.01
2019-02-23T01:32:40.996Z,3.95
2019-02-23T01:33:44.491Z,3.93
2019-02-23T01:34:47.940Z,4.04
2019-02-23T01:35:51.391Z,4.02
2019-02-23T01:36:54.824Z,3.99
2019-02-23T01:37:58.571Z,4.05
2019-02-23T01:39:02.003Z,4.05
2019-02-23T01:40:08.382Z,3.93
2019-02-23T01:41:11.882Z,3.97
2019-02-23T01:42:15.337Z,4.03
2019-02-23T01:43:18.784Z,4.01
2019-02-23T01:44:22.211Z,3.83
2019-02-23T01:45:25.729Z,3.82
2019-02-23T01:46:29.240Z,3.85
2019-02-23T01:47:32.706Z,3.85
2019-02-23T01:48:36.270Z,3.77
2019-02-23T01:49:39.704Z,3.77
2019-02-23T01:50:43.243Z,3.76
2019-02-23T01:51:46.686Z,3.76
2019-02-23T01:52:50.189Z,3.72
2019-02-23T01:53:53.717Z,3.70
2019-02-23T01:54:57.206Z,3.72
2019-02-23T01:56:00.734Z,3.65
2019-02-23T01:57:04.382Z,3.74
2019-02-23T01:58:07.979Z,3.80
2019-02-23T01:59:11.423Z,3.78
2019-02-23T02:00:15.362Z,3.77
2019-02-23T02:01:19.050Z,3.69
2019-02-23T02:02:22.566Z,3.62
2019-02-23T02:03:26.169Z,3.63
2019-02-23T02:04:29.762Z,3.69
2019-02-23T02:05:33.203Z,3.65
2019-02-23T02:06:36.656Z,3.69
2019-02-23T02:07:40.173Z,3.68
2019-02-23T02:08:43.774Z,3.55
2019-02-23T02:09:47.214Z,3.56
2019-02-23T02:10:50.799Z,3.45
2019-02-23T02:11:54.317Z,3.39
2019-02-23T02:12:57.823Z,3.40
2019-02-23T02:14:01.334Z,3.42
2019-02-23T02:15:07.437Z,3.47
2019-02-23T02:16:10.869Z,3.41
2019-02-23T02:17:14.397Z,3.50
2019-02-23T02:18:17.857Z,3.45
2019-02-23T02:19:21.296Z,3.45
2019-02-23T02:20:24.732Z,3.38
2019-02-23T02:21:28.164Z,3.28
2019-02-23T02:22:31.696Z,3.30
2019-02-23T02:23:35.150Z,3.27
2019-02-23T02:24:38.650Z,3.25
2019-02-23T02:25:42.089Z,3.31
2019-02-23T02:26:45.592Z,3.36
2019-02-23T02:27:49.043Z,3.38
2019-02-23T02:28:52.473Z,3.38
2019-02-23T02:29:55.920Z,3.40
2019-02-23T02:30:59.368Z,3.42
2019-02-23T02:32:02.809Z,3.34
2019-02-23T02:33:06.470Z,3.25
2019-02-23T02:34:12.057Z,3.29
2019-02-23T02:35:15.482Z,3.34
2019-02-23T02:36:18.996Z,3.21
2019-02-23T02:37:22.433Z,3.26
2019-02-23T02:38:25.888Z,3.22
2019-02-23T02:39:29.400Z,3.10
2019-02-23T02:40:32.910Z,3.09
2019-02-23T02:41:36.413Z,2.99
2019-02-23T02:42:40.042Z,2.83
2019-02-23T02:43:43.525Z,2.87
2019-02-23T02:44:47.026Z,2.93
2019-02-23T02:45:50.462Z,3.02
2019-02-23T02:46:53.976Z,2.88
2019-02-23T02:47:57.555Z,2.88
2019-02-23T02:49:01.002Z,2.82
2019-02-23T02:50:06.197Z,2.88
2019-02-23T02:51:09.628Z,2.89
2019-02-23T02:52:13.149Z,2.97
2019-02-23T02:53:16.596Z,2.98
2019-02-23T02:54:20.125Z,2.86
2019-02-23T02:55:23.577Z,2.82
2019-02-23T02:56:27.103Z,2.93
2019-02-23T02:57:30.619Z,2.90
2019-02-23T02:58:34.047Z,2.86
2019-02-23T02:59:37.509Z,2.78
2019-02-23T03:00:41.062Z,2.70
2019-02-23T03:01:44.459Z,2.65
2019-02-23T03:02:47.974Z,2.71
2019-02-23T03:03:51.488Z,2.73
2019-02-23T03:04:54.952Z,2.77
2019-02-23T03:05:58.417Z,2.73
2019-02-23T03:07:01.851Z,2.73
2019-02-23T03:08:05.321Z,2.62
2019-02-23T03:09:10.671Z,2.60
2019-02-23T03:10:14.262Z,2.66
2019-02-23T03:11:17.833Z,2.66
2019-02-23T03:12:21.227Z,2.72
2019-02-23T03:13:24.730Z,2.75
2019-02-23T03:14:28.176Z,2.75
2019-02-23T03:15:31.686Z,2.81
2019-02-23T03:16:35.204Z,2.85
2019-02-23T03:17:38.720Z,2.85
2019-02-23T03:18:42.164Z,2.90
2019-02-23T03:19:45.599Z,2.96
2019-02-23T03:20:49.051Z,2.97
2019-02-23T03:21:52.578Z,2.83
2019-02-23T03:22:56.015Z,2.85
2019-02-23T03:23:59.452Z,2.87
2019-02-23T03:25:02.885Z,2.91
2019-02-23T03:26:06.430Z,2.83
2019-02-23T03:27:09.880Z,2.85
2019-02-23T03:28:13.313Z,2.94
2019-02-23T03:29:16.742Z,2.98
2019-02-23T03:30:20.187Z,2.91
2019-02-23T03:31:23.664Z,2.95
2019-02-23T03:32:27.101Z,3.02
2019-02-23T03:33:30.599Z,2.87
2019-02-23T03:34:34.024Z,2.76
2019-02-23T03:35:37.469Z,2.66
2019-02-23T03:36:40.998Z,2.61
2019-02-23T03:37:44.437Z,2.64
2019-02-23T03:38:47.871Z,2.66
2019-02-23T03:39:51.329Z,2.58
2019-02-23T03:40:54.826Z,2.66
2019-02-23T03:41:58.728Z,2.58
2019-02-23T03:43:02.154Z,2.62
2019-02-23T03:44:05.669Z,2.64
2019-02-23T03:45:09.263Z,2.70
2019-02-23T03:46:12.793Z,2.68
2019-02-23T03:47:16.256Z,2.68
2019-02-23T03:48:19.692Z,2.57
2019-02-23T03:49:23.131Z,2.44
2019-02-23T03:50:26.567Z,2.40
2019-02-23T03:51:30.006Z,2.43
2019-02-23T03:52:33.535Z,2.47
2019-02-23T03:53:37.035Z,2.44
2019-02-23T03:54:40.802Z,2.42
2019-02-23T03:55:44.677Z,2.33
2019-02-23T03:56:48.180Z,2.31
2019-02-23T03:57:51.748Z,2.27
2019-02-23T03:58:55.170Z,2.31
2019-02-23T03:59:58.736Z,2.32
2019-02-23T04:01:02.175Z,2.33
2019-02-23T04:02:05.607Z,2.30
2019-02-23T04:03:09.056Z,2.32
2019-02-23T04:04:12.566Z,2.44
2019-02-23T04:05:16.080Z,2.46
2019-02-23T04:06:19.518Z,2.35
2019-02-23T04:07:22.955Z,2.30
2019-02-23T04:08:26.418Z,2.30
2019-02-23T04:09:29.984Z,2.31
2019-02-23T04:10:33.418Z,2.31
2019-02-23T04:11:36.857Z,2.21
2019-02-23T04:12:40.280Z,2.20
2019-02-23T04:13:43.818Z,2.20
2019-02-23T04:14:47.262Z,2.25
2019-02-23T04:15:50.721Z,2.35
2019-02-23T04:16:54.146Z,2.29
2019-02-23T04:17:57.574Z,2.21
2019-02-23T04:19:01.028Z,2.31
2019-02-23T04:20:06.234Z,2.34
2019-02-23T04:21:09.662Z,2.30
2019-02-23T04:22:13.075Z,2.32
2019-02-23T04:23:16.528Z,2.24
2019-02-23T04:24:19.957Z,2.11
2019-02-23T04:25:23.389Z,2.13
2019-02-23T04:26:26.821Z,2.06
2019-02-23T04:27:30.321Z,2.03
2019-02-23T04:28:33.750Z,2.13
2019-02-23T04:29:37.271Z,2.17
2019-02-23T04:30:40.701Z,2.11
2019-02-23T04:31:44.138Z,1.99
2019-02-23T04:32:47.563Z,1.96
2019-02-23T04:33:51.061Z,1.96
2019-02-23T04:34:54.510Z,1.86
2019-02-23T04:35:58.116Z,1.88
2019-02-23T04:37:01.538Z,1.98
2019-02-23T04:38:04.968Z,2.00
2019-02-23T04:39:08.404Z,1.93
2019-02-23T04:40:11.922Z,1.92
2019-02-23T04:41:15.347Z,1.85
2019-02-23T04:42:18.783Z,1.77
2019-02-23T04:43:22.219Z,1.84
2019-02-23T04:44:25.656Z,1.88
2019-02-23T04:45:29.187Z,1.86
2019-02-23T04:46:32.723Z,1.80
2019-02-23T04:47:36.153Z,1.81
2019-02-23T04:48:39.753Z,1.80
2019-02-23T04:49:44.695Z,1.83
2019-02-23T04:50:48.141Z,1.79
2019-02-23T04:51:51.616Z,1.82
2019-02-23T04:52:55.067Z,1.84
2019-02-23T04:53:58.586Z,1.69
2019-02-23T04:55:02.021Z,1.70
2019-02-23T04:56:05.549Z,1.92
2019-02-23T04:57:09.000Z,1.96
2019-02-23T04:58:12.433Z,1.86
2019-02-23T04:59:15.862Z,1.69
2019-02-23T05:00:19.446Z,1.52
2019-02-23T05:01:22.861Z,1.31
2019-02-23T05:02:26.332Z,1.26
2019-02-23T05:03:29.763Z,1.26
2019-02-23T05:04:33.281Z,1.22
2019-02-23T05:05:36.718Z,1.09
2019-02-23T05:06:40.171Z,1.10
2019-02-23T05:07:43.625Z,1.11
2019-02-23T05:08:47.053Z,1.08
2019-02-23T05:09:50.554Z,1.21
2019-02-23T05:10:53.992Z,1.18
2019-02-23T05:11:57.526Z,1.07
2019-02-23T05:13:00.970Z,1.04
2019-02-23T05:14:04.573Z,1.11
2019-02-23T05:15:10.090Z,1.01
2019-02-23T05:16:13.495Z,0.97
2019-02-23T05:17:16.955Z,0.97
2019-02-23T05:18:20.459Z,0.95
2019-02-23T05:19:23.896Z,1.05
2019-02-23T05:20:27.411Z,1.09
2019-02-23T05:21:30.838Z,1.10
2019-02-23T05:22:34.424Z,1.13
2019-02-23T05:23:37.880Z,1.23
2019-02-23T05:24:41.324Z,1.02
2019-02-23T05:25:44.918Z,0.96
2019-02-23T05:26:48.409Z,1.00
2019-02-23T05:27:51.884Z,1.01
2019-02-23T05:28:55.318Z,0.89
2019-02-23T05:29:58.762Z,0.90
2019-02-23T05:31:02.200Z,0.93
2019-02-23T05:32:05.639Z,0.95
2019-02-23T05:33:09.233Z,0.89
2019-02-23T05:34:12.665Z,0.94
2019-02-23T05:35:16.184Z,0.91
2019-02-23T05:36:19.634Z,0.97
2019-02-23T05:37:23.152Z,0.97
2019-02-23T05:38:26.663Z,0.91
2019-02-23T05:39:30.130Z,1.02
2019-02-23T05:40:33.573Z,1.02
2019-02-23T05:41:37.081Z,1.02
2019-02-23T05:42:40.532Z,1.12
2019-02-23T05:43:44.055Z,1.19
2019-02-23T05:44:47.510Z,1.10
2019-02-23T05:45:51.018Z,0.96
2019-02-23T05:46:54.488Z,0.96
2019-02-23T05:47:57.903Z,1.00
2019-02-23T05:49:01.434Z,0.91
2019-02-23T05:50:07.031Z,1.02
2019-02-23T05:51:10.492Z,1.04
2019-02-23T05:52:13.990Z,1.13
2019-02-23T05:53:17.463Z,1.12
2019-02-23T05:54:20.866Z,0.96
2019-02-23T05:55:24.324Z,0.89
2019-02-23T05:56:27.765Z,0.90
2019-02-23T05:57:31.237Z,0.90
2019-02-23T05:58:34.689Z,0.82
2019-02-23T05:59:38.143Z,0.82
2019-02-23T06:00:41.617Z,0.87
2019-02-23T06:01:45.185Z,0.81
2019-02-23T06:02:48.632Z,0.82
2019-02-23T06:03:52.132Z,0.80
2019-02-23T06:04:55.670Z,0.72
2019-02-23T06:05:59.228Z,0.76
2019-02-23T06:07:02.782Z,0.79
2019-02-23T06:08:06.282Z,0.65
2019-02-23T06:09:09.751Z,0.56
2019-02-23T06:10:13.367Z,0.64
2019-02-23T06:11:16.875Z,0.64
2019-02-23T06:12:20.392Z,0.73
2019-02-23T06:13:23.828Z,0.83
2019-02-23T06:14:27.278Z,0.88
2019-02-23T06:15:30.727Z,0.73
2019-02-23T06:16:34.284Z,0.66
2019-02-23T06:17:37.746Z,0.71
2019-02-23T06:18:41.263Z,0.76
2019-02-23T06:19:44.773Z,0.63
2019-02-23T06:20:48.306Z,0.65
2019-02-23T06:21:54.169Z,0.71
2019-02-23T06:22:56.988Z,0.82
2019-02-23T06:24:00.439Z,0.81
2019-02-23T06:25:04.456Z,0.90
2019-02-23T06:26:07.914Z,0.97
2019-02-23T06:27:11.412Z,0.99
2019-02-23T06:28:14.911Z,0.89
2019-02-23T06:29:18.373Z,0.80
2019-02-23T06:30:21.877Z,0.72
2019-02-23T06:31:25.405Z,0.63
2019-02-23T06:32:29.041Z,0.60
2019-02-23T06:33:32.564Z,0.60
2019-02-23T06:34:35.991Z,0.70
2019-02-23T06:35:39.444Z,0.74
2019-02-23T06:36:42.896Z,0.70
2019-02-23T06:37:46.385Z,0.65
2019-02-23T06:38:49.827Z,0.62
2019-02-23T06:39:53.250Z,0.62
2019-02-23T06:40:56.792Z,0.67
2019-02-23T06:42:00.424Z,0.71
2019-02-23T06:43:03.919Z,0.68
2019-02-23T06:44:07.351Z,0.68
2019-02-23T06:45:12.429Z,0.70
2019-02-23T06:46:15.865Z,0.70
2019-02-23T06:47:19.323Z,0.71
2019-02-23T06:48:22.751Z,0.70
2019-02-23T06:49:26.250Z,0.58
2019-02-23T06:50:29.675Z,0.58
2019-02-23T06:51:33.123Z,0.56
2019-02-23T06:52:36.641Z,0.62
2019-02-23T06:53:40.138Z,0.66
2019-02-23T06:54:43.568Z,0.65
2019-02-23T06:55:47.008Z,0.67
2019-02-23T06:56:50.463Z,0.65
2019-02-23T06:57:53.916Z,0.66
2019-02-23T06:58:57.353Z,0.69
2019-02-23T07:00:00.857Z,0.71
2019-02-23T07:01:04.355Z,0.70
2019-02-23T07:02:07.900Z,0.70
2019-02-23T07:03:11.332Z,0.77
2019-02-23T07:04:14.775Z,0.81
2019-02-23T07:05:18.342Z,0.75
2019-02-23T07:06:21.771Z,0.73
2019-02-23T07:07:25.242Z,0.71
2019-02-23T07:08:28.702Z,0.80
2019-02-23T07:09:32.258Z,0.72
2019-02-23T07:10:35.724Z,0.67
2019-02-23T07:11:39.225Z,0.66
2019-02-23T07:12:42.773Z,0.62
2019-02-23T07:13:46.223Z,0.60
2019-02-23T07:14:49.693Z,0.55
2019-02-23T07:15:53.204Z,0.53
2019-02-23T07:16:56.669Z,0.53
2019-02-23T07:18:00.686Z,0.65
2019-02-23T07:19:04.307Z,0.63
2019-02-23T07:20:09.835Z,0.67
2019-02-23T07:21:13.348Z,0.71
2019-02-23T07:22:16.849Z,0.69
2019-02-23T07:23:20.376Z,0.72
2019-02-23T07:24:23.816Z,0.72
2019-02-23T07:25:27.245Z,0.83
2019-02-23T07:26:30.686Z,0.83
2019-02-23T07:27:34.123Z,0.80
2019-02-23T07:28:37.639Z,0.85
2019-02-23T07:29:41.069Z,0.86
2019-02-23T07:30:44.530Z,0.94
2019-02-23T07:31:48.048Z,0.97
2019-02-23T07:32:51.546Z,0.96
2019-02-23T07:33:55.035Z,0.95
2019-02-23T07:34:58.690Z,0.95
2019-02-23T07:36:02.211Z,0.89
2019-02-23T07:37:05.766Z,0.89
2019-02-23T07:38:09.297Z,0.93
2019-02-23T07:39:12.819Z,0.97
2019-02-23T07:40:17.281Z,1.09
2019-02-23T07:41:20.750Z,1.08
2019-02-23T07:42:24.264Z,0.92
2019-02-23T07:43:27.814Z,0.94
2019-02-23T07:44:31.270Z,1.03
2019-02-23T07:45:34.694Z,1.09
2019-02-23T07:46:38.857Z,1.10
2019-02-23T07:47:42.292Z,1.05
2019-02-23T07:48:45.787Z,1.05
2019-02-23T07:49:50.056Z,1.05
2019-02-23T07:50:53.546Z,1.11
2019-02-23T07:51:57.048Z,1.07
2019-02-23T07:53:00.610Z,1.09
2019-02-23T07:54:04.189Z,1.21
2019-02-23T07:55:08.256Z,1.29
2019-02-23T07:56:12.338Z,1.36
2019-02-23T07:57:15.856Z,1.30
2019-02-23T07:58:19.410Z,1.27
2019-02-23T07:59:23.037Z,1.31
2019-02-23T08:00:26.608Z,1.43
2019-02-23T08:01:30.023Z,1.53
2019-02-23T08:02:33.526Z,1.50
2019-02-23T08:03:37.031Z,1.53
2019-02-23T08:04:40.466Z,1.60
2019-02-23T08:05:44.045Z,1.68
2019-02-23T08:06:47.610Z,1.59
2019-02-23T08:07:50.988Z,1.47
2019-02-23T08:08:54.426Z,1.47
2019-02-23T08:09:58.030Z,1.41
2019-02-23T08:11:01.509Z,1.38
2019-02-23T08:12:04.956Z,1.41
2019-02-23T08:13:09.556Z,1.49
2019-02-23T08:14:13.239Z,1.45
2019-02-23T08:15:16.717Z,1.48
2019-02-23T08:16:20.149Z,1.55
2019-02-23T08:17:23.581Z,1.61
2019-02-23T08:18:27.016Z,1.62
2019-02-23T08:19:30.469Z,1.50
2019-02-23T08:20:33.881Z,1.55
2019-02-23T08:21:37.447Z,1.53
2019-02-23T08:22:40.892Z,1.47
2019-02-23T08:23:44.348Z,1.45
2019-02-23T08:24:47.744Z,1.40
2019-02-23T08:25:51.198Z,1.42
2019-02-23T08:26:54.658Z,1.56
2019-02-23T08:27:58.133Z,1.68
2019-02-23T08:29:01.569Z,1.76
2019-02-23T08:30:08.201Z,1.76
2019-02-23T08:31:13.419Z,1.80
2019-02-23T08:32:16.948Z,1.88
2019-02-23T08:33:20.394Z,1.90
2019-02-23T08:34:23.827Z,1.90
2019-02-23T08:35:27.426Z,1.89
2019-02-23T08:36:30.862Z,1.94
2019-02-23T08:37:34.317Z,1.99
2019-02-23T08:38:37.756Z,1.99
2019-02-23T08:39:41.205Z,2.01
2019-02-23T08:40:44.713Z,2.04
2019-02-23T08:41:48.151Z,2.16
2019-02-23T08:42:51.596Z,2.15
2019-02-23T08:43:55.068Z,2.17
2019-02-23T08:44:58.505Z,2.15
2019-02-23T08:46:01.929Z,2.10
2019-02-23T08:47:05.444Z,2.15
2019-02-23T08:48:08.891Z,2.15
2019-02-23T08:49:15.009Z,2.13
2019-02-23T08:50:18.587Z,2.08
2019-02-23T08:51:22.019Z,2.08
2019-02-23T08:52:25.456Z,2.09
2019-02-23T08:53:28.901Z,2.05
2019-02-23T08:54:32.353Z,2.04
2019-02-23T08:55:35.779Z,2.10
2019-02-23T08:56:39.204Z,2.16
2019-02-23T08:57:42.773Z,2.21
2019-02-23T08:58:46.246Z,2.29
2019-02-23T08:59:49.842Z,2.26
2019-02-23T09:00:53.306Z,2.26
2019-02-23T09:01:56.797Z,2.28
2019-02-23T09:03:00.518Z,2.29
2019-02-23T09:04:04.087Z,2.33
2019-02-23T09:05:09.284Z,2.42
2019-02-23T09:06:12.698Z,2.39
2019-02-23T09:07:16.139Z,2.42
2019-02-23T09:08:19.567Z,2.54
2019-02-23T09:09:23.115Z,2.50
2019-02-23T09:10:26.619Z,2.46
2019-02-23T09:11:30.053Z,2.48
2019-02-23T09:12:33.475Z,2.48
2019-02-23T09:13:36.927Z,2.51
2019-02-23T09:14:40.368Z,2.56
2019-02-23T09:15:43.811Z,2.55
2019-02-23T09:16:47.228Z,2.47
2019-02-23T09:17:50.661Z,2.50
2019-02-23T09:18:54.090Z,2.56
2019-02-23T09:19:57.538Z,2.65
2019-02-23T09:21:00.962Z,2.74
2019-02-23T09:22:04.392Z,2.72
2019-02-23T09:23:07.879Z,2.70
2019-02-23T09:24:11.316Z,2.75
2019-02-23T09:25:14.902Z,2.67
2019-02-23T09:26:18.391Z,2.68
2019-02-23T09:27:21.827Z,2.69
2019-02-23T09:28:25.264Z,2.64
2019-02-23T09:29:28.830Z,2.62
2019-02-23T09:30:32.341Z,2.58
2019-02-23T09:31:35.784Z,2.58
2019-02-23T09:32:39.283Z,2.61
2019-02-23T09:33:42.886Z,2.64
2019-02-23T09:34:46.358Z,2.67
2019-02-23T09:35:49.850Z,2.68
2019-02-23T09:36:53.364Z,2.68
2019-02-23T09:37:56.777Z,2.62
2019-02-23T09:39:00.283Z,2.67
2019-02-23T09:40:04.590Z,2.72
2019-02-23T09:41:08.163Z,2.74
2019-02-23T09:42:11.667Z,2.83
2019-02-23T09:43:17.721Z,2.94
2019-02-23T09:44:20.338Z,3.02
2019-02-23T09:45:23.833Z,3.12
2019-02-23T09:46:27.384Z,3.18
2019-02-23T09:47:30.892Z,3.26
2019-02-23T09:48:34.412Z,3.27
2019-02-23T09:49:37.846Z,3.38
2019-02-23T09:50:41.337Z,3.38
2019-02-23T09:51:44.887Z,3.42
2019-02-23T09:52:48.336Z,3.51
2019-02-23T09:53:51.872Z,3.50
2019-02-23T09:54:55.298Z,3.46
2019-02-23T09:55:58.733Z,3.49
2019-02-23T09:57:02.446Z,3.55
2019-02-23T09:58:06.041Z,3.64
2019-02-23T09:59:09.528Z,3.72
2019-02-23T10:00:14.621Z,3.76
2019-02-23T10:01:18.018Z,3.73
2019-02-23T10:02:21.608Z,3.67
2019-02-23T10:03:25.065Z,3.67
2019-02-23T10:04:28.501Z,3.70
2019-02-23T10:05:31.930Z,3.75
2019-02-23T10:06:35.597Z,3.80
2019-02-23T10:07:39.226Z,3.83
2019-02-23T10:08:42.721Z,3.78
2019-02-23T10:09:46.312Z,3.78
2019-02-23T10:10:49.774Z,3.70
2019-02-23T10:11:53.362Z,3.55
2019-02-23T10:12:56.935Z,3.43
2019-02-23T10:14:00.371Z,3.44
2019-02-23T10:15:04.770Z,3.52
2019-02-23T10:16:08.166Z,3.53
2019-02-23T10:17:11.716Z,3.50
2019-02-23T10:18:15.253Z,3.43
2019-02-23T10:19:18.693Z,3.55
2019-02-23T10:20:22.181Z,3.59
2019-02-23T10:21:25.633Z,3.62
2019-02-23T10:22:29.087Z,3.65
2019-02-23T10:23:32.595Z,3.59
2019-02-23T10:24:36.046Z,3.61
2019-02-23T10:25:39.622Z,3.70
2019-02-23T10:26:43.109Z,3.73
2019-02-23T10:27:46.652Z,3.84
2019-02-23T10:28:50.198Z,3.88
2019-02-23T10:29:53.633Z,3.92
2019-02-23T10:30:57.066Z,3.99
2019-02-23T10:32:00.566Z,4.02
2019-02-23T10:33:04.074Z,4.02
2019-02-23T10:34:07.564Z,4.05
2019-02-23T10:35:12.456Z,4.02
2019-02-23T10:36:15.952Z,4.09
2019-02-23T10:37:19.403Z,4.17
2019-02-23T10:38:22.974Z,4.26
2019-02-23T10:39:26.583Z,4.33
2019-02-23T10:40:30.044Z,4.40
2019-02-23T10:41:33.477Z,4.46
2019-02-23T10:42:36.902Z,4.49
2019-02-23T10:43:40.347Z,4.38
2019-02-23T10:44:43.797Z,4.25
2019-02-23T10:45:47.452Z,4.26
2019-02-23T10:46:50.978Z,4.31
2019-02-23T10:47:54.404Z,4.27
2019-02-23T10:48:57.913Z,4.23
2019-02-23T10:50:01.388Z,4.20
2019-02-23T10:51:05.103Z,4.20
2019-02-23T10:52:08.654Z,4.29
2019-02-23T10:53:12.227Z,4.31
2019-02-23T10:54:15.766Z,4.36
2019-02-23T10:55:19.305Z,4.46
2019-02-23T10:56:22.927Z,4.58
2019-02-23T10:57:26.499Z,4.61
2019-02-23T10:58:30.074Z,4.62
2019-02-23T10:59:33.540Z,4.66
2019-02-23T11:00:37.330Z,4.63
2019-02-23T11:01:40.739Z,4.66
2019-02-23T11:02:44.251Z,4.73
2019-02-23T11:03:47.818Z,4.84
2019-02-23T11:04:51.365Z,4.90
2019-02-23T11:05:54.924Z,4.92
2019-02-23T11:06:58.419Z,4.87
2019-02-23T11:08:01.993Z,4.78
2019-02-23T11:09:08.004Z,4.73
2019-02-23T11:10:11.676Z,4.79
2019-02-23T11:11:15.211Z,4.87
2019-02-23T11:12:18.820Z,5.03
2019-02-23T11:13:22.294Z,5.10
2019-02-23T11:14:25.865Z,5.14
2019-02-23T11:15:29.474Z,5.11
2019-02-23T11:16:32.921Z,5.13
2019-02-23T11:17:36.357Z,5.17
2019-02-23T11:18:39.893Z,5.24
2019-02-23T11:19:43.315Z,5.24
2019-02-23T11:20:47.042Z,5.06
2019-02-23T11:21:50.749Z,4.89
2019-02-23T11:22:54.244Z,4.91
2019-02-23T11:23:57.740Z,4.97
2019-02-23T11:25:01.239Z,5.04
2019-02-23T11:26:04.844Z,5.09
2019-02-23T11:27:08.482Z,5.14
2019-02-23T11:28:11.987Z,5.27
2019-02-23T11:29:15.493Z,5.40
2019-02-23T11:30:19.121Z,5.39
2019-02-23T11:31:22.918Z,5.58
2019-02-23T11:32:26.420Z,6.03
2019-02-23T11:33:30.114Z,6.26
2019-02-23T11:34:34.276Z,6.17
2019-02-23T11:35:37.842Z,6.11
2019-02-23T11:36:41.464Z,5.97
2019-02-23T11:37:45.015Z,5.91
2019-02-23T11:38:48.602Z,5.91
2019-02-23T11:39:52.217Z,5.91
2019-02-23T11:40:55.672Z,5.88
2019-02-23T11:41:59.226Z,5.99
2019-02-23T11:43:02.887Z,6.07
2019-02-23T11:44:06.766Z,6.09
2019-02-23T11:45:11.429Z,6.18
2019-02-23T11:46:14.916Z,6.19
2019-02-23T11:47:18.433Z,6.25
2019-02-23T11:48:21.949Z,6.31
2019-02-23T11:49:25.451Z,6.42
2019-02-23T11:50:28.929Z,6.50
2019-02-23T11:51:32.429Z,6.54
2019-02-23T11:52:36.160Z,6.66
2019-02-23T11:53:39.655Z,6.79
2019-02-23T11:54:44.789Z,6.90
2019-02-23T11:55:48.375Z,6.90
2019-02-23T11:56:51.935Z,7.00
2019-02-23T11:57:55.408Z,7.14
2019-02-23T11:58:58.916Z,7.36
2019-02-23T12:00:03.452Z,7.40
2019-02-23T12:01:06.942Z,7.46
2019-02-23T12:02:10.456Z,7.50
2019-02-23T12:03:14.044Z,7.63
2019-02-23T12:04:17.517Z,7.67
2019-02-23T12:05:20.981Z,7.76
2019-02-23T12:06:24.398Z,7.88
2019-02-23T12:07:27.902Z,8.02
2019-02-23T12:08:31.340Z,8.20
2019-02-23T12:09:34.776Z,8.38
2019-02-23T12:10:38.342Z,8.38
2019-02-23T12:11:41.770Z,8.47
2019-02-23T12:12:45.273Z,8.48
2019-02-23T12:13:48.792Z,8.39
2019-02-23T12:14:52.319Z,8.48
2019-02-23T12:15:55.748Z,8.67
2019-02-23T12:16:59.175Z,8.55
2019-02-23T12:18:02.683Z,8.47
2019-02-23T12:19:06.175Z,8.39
2019-02-23T12:20:10.982Z,8.38
2019-02-23T12:21:14.874Z,8.61
2019-02-23T12:22:18.301Z,8.78
2019-02-23T12:23:22.090Z,8.97
2019-02-23T12:24:25.536Z,9.02
2019-02-23T12:25:29.011Z,8.93
2019-02-23T12:26:32.521Z,8.78
2019-02-23T12:27:36.085Z,8.78
2019-02-23T12:28:39.520Z,8.83
2019-02-23T12:29:43.042Z,8.96
2019-02-23T12:30:46.567Z,9.04
2019-02-23T12:31:49.983Z,9.04
2019-02-23T12:32:53.410Z,9.79
2019-02-23T12:33:56.840Z,9.79
2019-02-23T12:35:00.344Z,9.97
2019-02-23T12:36:03.878Z,10.51
2019-02-23T12:37:07.300Z,11.32
2019-02-23T12:38:10.724Z,11.87
2019-02-23T12:39:14.149Z,12.84
2019-02-23T12:40:17.671Z,13.46
2019-02-23T12:41:21.139Z,14.18
2019-02-23T12:42:24.565Z,14.46
2019-02-23T12:43:28.002Z,13.81
2019-02-23T12:44:31.501Z,12.98
2019-02-23T12:45:35.072Z,12.63
2019-02-23T12:46:38.522Z,12.83
2019-02-23T12:47:42.033Z,12.71
2019-02-23T12:48:45.458Z,13.00
2019-02-23T12:49:48.893Z,12.35
2019-02-23T12:50:52.428Z,11.97
2019-02-23T12:51:55.953Z,11.62
2019-02-23T12:52:59.880Z,11.23
2019-02-23T12:54:03.389Z,11.12
2019-02-23T12:55:09.159Z,11.01
2019-02-23T12:56:12.625Z,11.21
2019-02-23T12:57:16.191Z,11.28
2019-02-23T12:58:19.785Z,11.45
2019-02-23T12:59:23.341Z,11.32
2019-02-23T13:00:26.855Z,11.87
2019-02-23T13:01:30.329Z,12.24
2019-02-23T13:02:33.864Z,12.81
2019-02-23T13:03:37.283Z,13.76
2019-02-23T13:04:40.792Z,13.60
2019-02-23T13:05:44.310Z,13.33
2019-02-23T13:06:47.941Z,13.49
2019-02-23T13:07:51.462Z,13.59
2019-02-23T13:09:12.426Z,13.53
2019-02-23T13:10:16.066Z,13.72
2019-02-23T13:11:19.582Z,13.96
2019-02-23T13:12:47.177Z,14.20
2019-02-23T13:14:05.380Z,14.10
2019-02-23T13:15:17.379Z,14.21
2019-02-23T13:16:23.929Z,14.31
2019-02-23T13:17:49.306Z,14.70
2019-02-23T13:19:04.443Z,14.96
2019-02-23T13:20:22.804Z,14.04
2019-02-23T13:21:45.992Z,13.89
2019-02-23T13:23:08.632Z,13.92
2019-02-23T13:24:27.681Z,12.94
2019-02-23T13:25:43.368Z,12.83
2019-02-23T13:27:04.803Z,13.25
2019-02-23T13:28:31.954Z,13.77
2019-02-23T13:29:47.163Z,14.06
2019-02-23T13:31:02.049Z,14.14
2019-02-23T13:32:27.499Z,13.91
2019-02-23T13:33:45.801Z,13.89
2019-02-23T13:35:08.415Z,14.03
2019-02-23T13:36:41.768Z,13.66
2019-02-23T13:37:53.791Z,13.86
2019-02-23T13:39:28.550Z,13.93
2019-02-23T13:40:38.037Z,13.65
2019-02-23T13:41:53.130Z,13.28
2019-02-23T13:43:08.370Z,13.47
2019-02-23T13:44:19.275Z,13.44
2019-02-23T13:45:39.868Z,13.86
2019-02-23T13:47:05.695Z,13.93
2019-02-23T13:48:30.077Z,13.82
2019-02-23T13:49:48.366Z,13.84
2019-02-23T13:51:15.708Z,13.94
2019-02-23T13:52:33.821Z,14.09
2019-02-23T13:53:59.479Z,13.64
2019-02-23T13:55:11.629Z,13.37
2019-02-23T13:56:32.566Z,13.08
2019-02-23T13:57:50.931Z,12.94
2019-02-23T13:59:12.362Z,13.05
2019-02-23T14:00:35.138Z,13.16
2019-02-23T14:01:41.851Z,13.33
2019-02-23T14:02:53.895Z,13.53
2019-02-23T14:04:06.168Z,13.37
2019-02-23T14:05:15.354Z,13.61
2019-02-23T14:06:39.689Z,13.60
2019-02-23T14:07:57.796Z,13.65
2019-02-23T14:09:31.027Z,13.27
2019-02-23T14:10:40.375Z,13.35
2019-02-23T14:11:52.750Z,13.70
2019-02-23T14:13:13.690Z,13.45
2019-02-23T14:14:28.839Z,13.47
2019-02-23T14:15:54.048Z,13.11